sensor_id;sensor_type;location;lat;lon;timestamp;temperature;humidity
14000;DHT22;7075;53.574;10.054;2023-06-24T00:00:49;19.50;99.90
14000;DHT22;7075;53.574;10.054;2023-06-24T00:03:18;19.50;99.90
14000;DHT22;7075;53.574;10.054;2023-06-24T00:05:43;19.40;99.90
14000;DHT22;7075;53.574;10.054;2023-06-24T00:08:16;19.30;99.90
14000;DHT22;7075;53.574;10.054;2023-06-24T00:10:47;19.20;99.90
14000;DHT22;7075;53.574;10.054;2023-06-24T00:13:15;19.20;99.90
14000;DHT22;7075;53.574;10.054;2023-06-24T00:15:41;19.20;99.90
14000;DHT22;7075;53.574;10.054;2023-06-24T00:18:21;19.20;99.90
14000;DHT22;7075;53.574;10.054;2023-06-24T00:20:50;19.20;99.90
14000;DHT22;7075;53.574;10.054;2023-06-24T00:23:18;19.10;99.90
14000;DHT22;7075;53.574;10.054;2023-06-24T00:25:52;19.10;99.90
14000;DHT22;7075;53.574;10.054;2023-06-24T00:28:18;19.20;99.90
14000;DHT22;7075;53.574;10.054;2023-06-24T00:30:43;19.10;99.90
14000;DHT22;7075;53.574;10.054;2023-06-24T00:33:09;19.10;99.90
14000;DHT22;7075;53.574;10.054;2023-06-24T00:35:36;19.00;99.90
14000;DHT22;7075;53.574;10.054;2023-06-24T00:38:03;19.00;99.90
14000;DHT22;7075;53.574;10.054;2023-06-24T00:40:29;18.90;99.90
14000;DHT22;7075;53.574;10.054;2023-06-24T00:42:55;18.90;99.90
14000;DHT22;7075;53.574;10.054;2023-06-24T00:45:22;18.80;99.90
14000;DHT22;7075;53.574;10.054;2023-06-24T00:47:48;18.70;99.90
14000;DHT22;7075;53.574;10.054;2023-06-24T00:50:14;18.80;99.90
14000;DHT22;7075;53.574;10.054;2023-06-24T00:52:40;18.70;99.90
14000;DHT22;7075;53.574;10.054;2023-06-24T00:55:13;18.70;99.90
14000;DHT22;7075;53.574;10.054;2023-06-24T00:57:41;18.70;99.90
14000;DHT22;7075;53.574;10.054;2023-06-24T01:00:07;18.70;99.90
14000;DHT22;7075;53.574;10.054;2023-06-24T01:02:40;18.60;99.90
14000;DHT22;7075;53.574;10.054;2023-06-24T01:05:08;18.60;99.90
14000;DHT22;7075;53.574;10.054;2023-06-24T01:07:37;18.60;99.90
14000;DHT22;7075;53.574;10.054;2023-06-24T01:10:04;18.50;99.90
14000;DHT22;7075;53.574;10.054;2023-06-24T01:12:38;18.50;99.90
14000;DHT22;7075;53.574;10.054;2023-06-24T01:15:10;18.50;99.90
14000;DHT22;7075;53.574;10.054;2023-06-24T01:17:44;18.50;99.90
14000;DHT22;7075;53.574;10.054;2023-06-24T01:20:11;18.40;99.90
14000;DHT22;7075;53.574;10.054;2023-06-24T01:22:59;18.30;99.90
14000;DHT22;7075;53.574;10.054;2023-06-24T01:25:55;18.30;99.90
14000;DHT22;7075;53.574;10.054;2023-06-24T01:31:19;18.30;99.90
14000;DHT22;7075;53.574;10.054;2023-06-24T01:33:52;18.30;99.90
14000;DHT22;7075;53.574;10.054;2023-06-24T01:36:22;18.30;99.90
14000;DHT22;7075;53.574;10.054;2023-06-24T01:38:52;18.30;99.90
14000;DHT22;7075;53.574;10.054;2023-06-24T01:41:24;18.30;99.90
14000;DHT22;7075;53.574;10.054;2023-06-24T01:43:53;18.30;99.90
14000;DHT22;7075;53.574;10.054;2023-06-24T01:46:22;18.30;99.90
14000;DHT22;7075;53.574;10.054;2023-06-24T01:48:50;18.30;99.90
14000;DHT22;7075;53.574;10.054;2023-06-24T01:51:20;18.20;99.90
14000;DHT22;7075;53.574;10.054;2023-06-24T01:54:11;18.20;99.90
14000;DHT22;7075;53.574;10.054;2023-06-24T01:56:40;18.20;99.90
14000;DHT22;7075;53.574;10.054;2023-06-24T01:59:07;18.20;99.90
14000;DHT22;7075;53.574;10.054;2023-06-24T02:01:35;18.10;99.90
14000;DHT22;7075;53.574;10.054;2023-06-24T02:04:03;18.20;99.90
14000;DHT22;7075;53.574;10.054;2023-06-24T02:06:30;18.20;99.90
14000;DHT22;7075;53.574;10.054;2023-06-24T02:08:58;18.20;99.90
14000;DHT22;7075;53.574;10.054;2023-06-24T02:11:26;18.20;99.90
14000;DHT22;7075;53.574;10.054;2023-06-24T02:13:54;18.10;99.90
14000;DHT22;7075;53.574;10.054;2023-06-24T02:16:21;18.10;99.90
14000;DHT22;7075;53.574;10.054;2023-06-24T02:18:47;18.10;99.90
14000;DHT22;7075;53.574;10.054;2023-06-24T02:21:17;18.10;99.90
14000;DHT22;7075;53.574;10.054;2023-06-24T02:23:44;18.10;99.90
14000;DHT22;7075;53.574;10.054;2023-06-24T02:26:11;18.10;99.90
14000;DHT22;7075;53.574;10.054;2023-06-24T02:28:37;18.10;99.90
14000;DHT22;7075;53.574;10.054;2023-06-24T02:31:10;18.10;99.90
14000;DHT22;7075;53.574;10.054;2023-06-24T02:33:36;18.00;99.90
14000;DHT22;7075;53.574;10.054;2023-06-24T02:36:01;17.90;99.90
14000;DHT22;7075;53.574;10.054;2023-06-24T02:38:27;17.90;99.90
14000;DHT22;7075;53.574;10.054;2023-06-24T02:40:53;17.90;99.90
14000;DHT22;7075;53.574;10.054;2023-06-24T02:43:18;17.90;99.90
14000;DHT22;7075;53.574;10.054;2023-06-24T02:45:45;17.80;99.90
14000;DHT22;7075;53.574;10.054;2023-06-24T02:48:13;17.80;99.90
14000;DHT22;7075;53.574;10.054;2023-06-24T02:50:40;17.80;99.90
14000;DHT22;7075;53.574;10.054;2023-06-24T02:53:07;17.80;99.90
14000;DHT22;7075;53.574;10.054;2023-06-24T02:55:33;17.90;99.90
14000;DHT22;7075;53.574;10.054;2023-06-24T02:58:01;17.90;99.90
14000;DHT22;7075;53.574;10.054;2023-06-24T03:00:27;17.90;99.90
14000;DHT22;7075;53.574;10.054;2023-06-24T03:02:55;17.80;99.90
14000;DHT22;7075;53.574;10.054;2023-06-24T03:05:21;17.80;99.90
14000;DHT22;7075;53.574;10.054;2023-06-24T03:07:50;17.80;99.90
14000;DHT22;7075;53.574;10.054;2023-06-24T03:10:18;17.80;99.90
14000;DHT22;7075;53.574;10.054;2023-06-24T03:12:44;17.70;99.90
14000;DHT22;7075;53.574;10.054;2023-06-24T03:15:10;17.70;99.90
14000;DHT22;7075;53.574;10.054;2023-06-24T03:17:36;17.70;99.90
14000;DHT22;7075;53.574;10.054;2023-06-24T03:20:03;17.70;99.90
14000;DHT22;7075;53.574;10.054;2023-06-24T03:25:47;17.70;99.90
14000;DHT22;7075;53.574;10.054;2023-06-24T03:28:13;17.60;99.90
14000;DHT22;7075;53.574;10.054;2023-06-24T03:30:39;17.70;99.90
14000;DHT22;7075;53.574;10.054;2023-06-24T03:33:04;17.60;99.90
14000;DHT22;7075;53.574;10.054;2023-06-24T03:35:31;17.60;99.90
14000;DHT22;7075;53.574;10.054;2023-06-24T03:37:58;17.60;99.90
14000;DHT22;7075;53.574;10.054;2023-06-24T03:40:24;17.60;99.90
14000;DHT22;7075;53.574;10.054;2023-06-24T03:42:49;17.60;99.90
14000;DHT22;7075;53.574;10.054;2023-06-24T03:45:15;17.60;99.90
14000;DHT22;7075;53.574;10.054;2023-06-24T03:47:41;17.60;99.90
14000;DHT22;7075;53.574;10.054;2023-06-24T03:50:17;17.60;99.90
14000;DHT22;7075;53.574;10.054;2023-06-24T03:52:43;17.60;99.90
14000;DHT22;7075;53.574;10.054;2023-06-24T03:55:10;17.60;99.90
14000;DHT22;7075;53.574;10.054;2023-06-24T03:57:36;17.60;99.90
14000;DHT22;7075;53.574;10.054;2023-06-24T04:00:03;17.60;99.90
14000;DHT22;7075;53.574;10.054;2023-06-24T04:02:41;17.50;99.90
14000;DHT22;7075;53.574;10.054;2023-06-24T04:05:09;17.50;99.90
14000;DHT22;7075;53.574;10.054;2023-06-24T04:07:35;17.50;99.90
14000;DHT22;7075;53.574;10.054;2023-06-24T04:10:02;17.50;99.90
14000;DHT22;7075;53.574;10.054;2023-06-24T04:12:29;17.50;99.90
14000;DHT22;7075;53.574;10.054;2023-06-24T04:14:55;17.50;99.90
14000;DHT22;7075;53.574;10.054;2023-06-24T04:17:20;17.50;99.90
14000;DHT22;7075;53.574;10.054;2023-06-24T04:19:46;17.50;99.90
14000;DHT22;7075;53.574;10.054;2023-06-24T04:22:12;17.50;99.90
14000;DHT22;7075;53.574;10.054;2023-06-24T04:24:38;17.50;99.90
14000;DHT22;7075;53.574;10.054;2023-06-24T04:27:05;17.50;99.90
14000;DHT22;7075;53.574;10.054;2023-06-24T04:29:31;17.50;99.90
14000;DHT22;7075;53.574;10.054;2023-06-24T04:31:57;17.50;99.90
14000;DHT22;7075;53.574;10.054;2023-06-24T04:34:22;17.40;99.90
14000;DHT22;7075;53.574;10.054;2023-06-24T04:36:48;17.40;99.90
14000;DHT22;7075;53.574;10.054;2023-06-24T04:39:14;17.40;99.90
14000;DHT22;7075;53.574;10.054;2023-06-24T04:41:39;17.40;99.90
14000;DHT22;7075;53.574;10.054;2023-06-24T04:44:05;17.40;99.90
14000;DHT22;7075;53.574;10.054;2023-06-24T04:46:31;17.40;99.90
14000;DHT22;7075;53.574;10.054;2023-06-24T04:48:58;17.50;99.90
14000;DHT22;7075;53.574;10.054;2023-06-24T04:51:23;17.50;99.90
14000;DHT22;7075;53.574;10.054;2023-06-24T04:53:52;17.50;99.90
14000;DHT22;7075;53.574;10.054;2023-06-24T04:56:17;17.50;99.90
14000;DHT22;7075;53.574;10.054;2023-06-24T04:58:43;17.60;99.90
14000;DHT22;7075;53.574;10.054;2023-06-24T05:01:09;17.60;99.90
14000;DHT22;7075;53.574;10.054;2023-06-24T05:03:35;17.60;99.90
14000;DHT22;7075;53.574;10.054;2023-06-24T05:06:00;17.60;99.90
14000;DHT22;7075;53.574;10.054;2023-06-24T05:08:26;17.60;99.90
14000;DHT22;7075;53.574;10.054;2023-06-24T05:10:51;17.60;99.90
14000;DHT22;7075;53.574;10.054;2023-06-24T05:13:17;17.60;99.90
14000;DHT22;7075;53.574;10.054;2023-06-24T05:15:42;17.60;99.90
14000;DHT22;7075;53.574;10.054;2023-06-24T05:18:20;17.70;99.90
14000;DHT22;7075;53.574;10.054;2023-06-24T05:20:46;17.70;99.90
14000;DHT22;7075;53.574;10.054;2023-06-24T05:23:11;17.70;99.90
14000;DHT22;7075;53.574;10.054;2023-06-24T05:25:37;17.70;99.90
14000;DHT22;7075;53.574;10.054;2023-06-24T05:28:03;17.70;99.90
14000;DHT22;7075;53.574;10.054;2023-06-24T05:30:28;17.70;99.90
14000;DHT22;7075;53.574;10.054;2023-06-24T05:32:54;17.70;99.90
14000;DHT22;7075;53.574;10.054;2023-06-24T05:35:19;17.70;99.90
14000;DHT22;7075;53.574;10.054;2023-06-24T05:37:45;17.60;99.90
14000;DHT22;7075;53.574;10.054;2023-06-24T05:40:11;17.60;99.90
14000;DHT22;7075;53.574;10.054;2023-06-24T05:42:38;17.60;99.90
14000;DHT22;7075;53.574;10.054;2023-06-24T05:45:04;17.70;99.90
14000;DHT22;7075;53.574;10.054;2023-06-24T05:47:31;17.70;99.90
14000;DHT22;7075;53.574;10.054;2023-06-24T05:49:57;17.80;99.90
14000;DHT22;7075;53.574;10.054;2023-06-24T05:52:24;17.80;99.90
14000;DHT22;7075;53.574;10.054;2023-06-24T05:54:50;17.80;99.90
14000;DHT22;7075;53.574;10.054;2023-06-24T05:57:16;17.80;99.90
14000;DHT22;7075;53.574;10.054;2023-06-24T05:59:41;17.80;99.90
14000;DHT22;7075;53.574;10.054;2023-06-24T06:02:07;17.80;99.90
14000;DHT22;7075;53.574;10.054;2023-06-24T06:04:33;17.90;99.90
14000;DHT22;7075;53.574;10.054;2023-06-24T06:06:58;17.90;99.90
14000;DHT22;7075;53.574;10.054;2023-06-24T06:09:24;17.90;99.90
14000;DHT22;7075;53.574;10.054;2023-06-24T06:11:50;17.90;99.90
14000;DHT22;7075;53.574;10.054;2023-06-24T06:14:15;18.00;99.90
14000;DHT22;7075;53.574;10.054;2023-06-24T06:16:41;18.00;99.90
14000;DHT22;7075;53.574;10.054;2023-06-24T06:19:06;18.00;99.90
14000;DHT22;7075;53.574;10.054;2023-06-24T06:21:32;18.00;99.90
14000;DHT22;7075;53.574;10.054;2023-06-24T06:23:57;18.10;99.90
14000;DHT22;7075;53.574;10.054;2023-06-24T06:26:23;18.10;99.90
14000;DHT22;7075;53.574;10.054;2023-06-24T06:28:49;18.10;99.90
14000;DHT22;7075;53.574;10.054;2023-06-24T06:31:15;18.10;99.90
14000;DHT22;7075;53.574;10.054;2023-06-24T06:33:41;18.10;99.90
14000;DHT22;7075;53.574;10.054;2023-06-24T06:36:07;18.20;99.90
14000;DHT22;7075;53.574;10.054;2023-06-24T06:38:33;18.20;99.90
14000;DHT22;7075;53.574;10.054;2023-06-24T06:41:06;18.20;99.90
14000;DHT22;7075;53.574;10.054;2023-06-24T06:43:33;18.20;99.90
14000;DHT22;7075;53.574;10.054;2023-06-24T06:45:58;18.20;99.90
14000;DHT22;7075;53.574;10.054;2023-06-24T06:48:24;18.30;99.90
14000;DHT22;7075;53.574;10.054;2023-06-24T06:50:50;18.30;99.90
14000;DHT22;7075;53.574;10.054;2023-06-24T06:53:17;18.30;99.90
14000;DHT22;7075;53.574;10.054;2023-06-24T06:55:43;18.30;99.90
14000;DHT22;7075;53.574;10.054;2023-06-24T06:58:08;18.30;99.90
14000;DHT22;7075;53.574;10.054;2023-06-24T07:00:34;18.40;99.90
14000;DHT22;7075;53.574;10.054;2023-06-24T07:03:00;18.40;99.90
14000;DHT22;7075;53.574;10.054;2023-06-24T07:05:25;18.40;99.90
14000;DHT22;7075;53.574;10.054;2023-06-24T07:07:51;18.40;99.90
14000;DHT22;7075;53.574;10.054;2023-06-24T07:10:17;18.50;99.90
14000;DHT22;7075;53.574;10.054;2023-06-24T07:12:42;18.50;99.90
14000;DHT22;7075;53.574;10.054;2023-06-24T07:15:08;18.50;99.90
14000;DHT22;7075;53.574;10.054;2023-06-24T07:17:34;18.50;99.90
14000;DHT22;7075;53.574;10.054;2023-06-24T07:20:00;18.50;99.90
14000;DHT22;7075;53.574;10.054;2023-06-24T07:22:26;18.50;99.90
14000;DHT22;7075;53.574;10.054;2023-06-24T07:24:51;18.60;99.90
14000;DHT22;7075;53.574;10.054;2023-06-24T07:27:17;18.60;99.90
14000;DHT22;7075;53.574;10.054;2023-06-24T07:29:42;18.60;99.90
14000;DHT22;7075;53.574;10.054;2023-06-24T07:32:08;18.70;99.90
14000;DHT22;7075;53.574;10.054;2023-06-24T07:34:34;18.70;99.90
14000;DHT22;7075;53.574;10.054;2023-06-24T07:36:59;18.80;99.90
14000;DHT22;7075;53.574;10.054;2023-06-24T07:39:25;18.80;99.90
14000;DHT22;7075;53.574;10.054;2023-06-24T07:41:50;18.80;99.90
14000;DHT22;7075;53.574;10.054;2023-06-24T07:44:16;18.80;99.90
14000;DHT22;7075;53.574;10.054;2023-06-24T07:46:43;18.90;99.90
14000;DHT22;7075;53.574;10.054;2023-06-24T07:49:08;18.90;99.90
14000;DHT22;7075;53.574;10.054;2023-06-24T07:51:34;18.90;99.90
14000;DHT22;7075;53.574;10.054;2023-06-24T07:54:00;18.90;99.90
14000;DHT22;7075;53.574;10.054;2023-06-24T07:56:26;19.00;99.90
14000;DHT22;7075;53.574;10.054;2023-06-24T07:58:52;19.00;99.90
14000;DHT22;7075;53.574;10.054;2023-06-24T08:01:18;19.10;99.90
14000;DHT22;7075;53.574;10.054;2023-06-24T08:03:43;19.10;99.90
14000;DHT22;7075;53.574;10.054;2023-06-24T08:06:09;19.20;99.90
14000;DHT22;7075;53.574;10.054;2023-06-24T08:08:34;19.10;99.90
14000;DHT22;7075;53.574;10.054;2023-06-24T08:11:02;19.10;99.90
14000;DHT22;7075;53.574;10.054;2023-06-24T08:13:28;19.10;99.90
14000;DHT22;7075;53.574;10.054;2023-06-24T08:15:54;19.10;99.90
14000;DHT22;7075;53.574;10.054;2023-06-24T08:18:19;19.20;99.90
14000;DHT22;7075;53.574;10.054;2023-06-24T08:20:45;19.30;99.90
14000;DHT22;7075;53.574;10.054;2023-06-24T08:23:10;19.30;99.90
14000;DHT22;7075;53.574;10.054;2023-06-24T08:25:36;19.40;99.90
14000;DHT22;7075;53.574;10.054;2023-06-24T08:28:02;19.40;99.90
14000;DHT22;7075;53.574;10.054;2023-06-24T08:30:27;19.40;99.90
14000;DHT22;7075;53.574;10.054;2023-06-24T08:32:53;19.40;99.90
14000;DHT22;7075;53.574;10.054;2023-06-24T08:35:19;19.40;99.90
14000;DHT22;7075;53.574;10.054;2023-06-24T08:37:44;19.50;99.90
14000;DHT22;7075;53.574;10.054;2023-06-24T08:40:10;19.50;99.90
14000;DHT22;7075;53.574;10.054;2023-06-24T08:42:36;19.50;99.90
14000;DHT22;7075;53.574;10.054;2023-06-24T08:45:01;19.50;99.90
14000;DHT22;7075;53.574;10.054;2023-06-24T08:47:28;19.50;99.90
14000;DHT22;7075;53.574;10.054;2023-06-24T08:50:13;19.60;99.90
14000;DHT22;7075;53.574;10.054;2023-06-24T08:52:42;19.70;99.90
14000;DHT22;7075;53.574;10.054;2023-06-24T08:55:11;19.70;99.90
14000;DHT22;7075;53.574;10.054;2023-06-24T08:57:38;19.70;99.90
14000;DHT22;7075;53.574;10.054;2023-06-24T09:00:06;19.70;99.90
14000;DHT22;7075;53.574;10.054;2023-06-24T09:02:35;19.70;99.90
14000;DHT22;7075;53.574;10.054;2023-06-24T09:05:07;19.70;99.90
14000;DHT22;7075;53.574;10.054;2023-06-24T09:07:33;19.70;99.90
14000;DHT22;7075;53.574;10.054;2023-06-24T09:09:59;19.80;99.90
14000;DHT22;7075;53.574;10.054;2023-06-24T09:12:31;19.90;99.90
14000;DHT22;7075;53.574;10.054;2023-06-24T09:14:57;19.90;99.90
14000;DHT22;7075;53.574;10.054;2023-06-24T09:17:23;19.90;99.90
14000;DHT22;7075;53.574;10.054;2023-06-24T09:19:50;19.90;99.90
14000;DHT22;7075;53.574;10.054;2023-06-24T09:22:17;20.00;99.90
14000;DHT22;7075;53.574;10.054;2023-06-24T09:24:45;20.10;99.90
14000;DHT22;7075;53.574;10.054;2023-06-24T09:27:13;20.10;99.90
14000;DHT22;7075;53.574;10.054;2023-06-24T09:29:41;20.10;99.90
14000;DHT22;7075;53.574;10.054;2023-06-24T09:32:08;20.20;99.90
14000;DHT22;7075;53.574;10.054;2023-06-24T09:34:34;20.10;99.90
14000;DHT22;7075;53.574;10.054;2023-06-24T09:37:01;20.20;99.90
14000;DHT22;7075;53.574;10.054;2023-06-24T09:39:28;20.20;99.90
14000;DHT22;7075;53.574;10.054;2023-06-24T09:41:57;20.30;99.90
14000;DHT22;7075;53.574;10.054;2023-06-24T09:44:25;20.30;99.90
14000;DHT22;7075;53.574;10.054;2023-06-24T09:46:51;20.20;99.90
14000;DHT22;7075;53.574;10.054;2023-06-24T09:49:18;20.30;99.90
14000;DHT22;7075;53.574;10.054;2023-06-24T09:51:46;20.40;99.90
14000;DHT22;7075;53.574;10.054;2023-06-24T09:54:13;20.40;99.90
14000;DHT22;7075;53.574;10.054;2023-06-24T09:56:48;20.50;99.90
14000;DHT22;7075;53.574;10.054;2023-06-24T09:59:15;20.50;99.90
14000;DHT22;7075;53.574;10.054;2023-06-24T10:01:43;20.60;99.90
14000;DHT22;7075;53.574;10.054;2023-06-24T10:04:13;20.60;99.90
14000;DHT22;7075;53.574;10.054;2023-06-24T10:06:40;20.60;99.90
14000;DHT22;7075;53.574;10.054;2023-06-24T10:09:06;20.60;99.90
14000;DHT22;7075;53.574;10.054;2023-06-24T10:11:32;20.70;99.90
14000;DHT22;7075;53.574;10.054;2023-06-24T10:13:58;20.70;99.90
14000;DHT22;7075;53.574;10.054;2023-06-24T10:16:23;20.80;99.90
14000;DHT22;7075;53.574;10.054;2023-06-24T10:18:49;20.80;99.90
14000;DHT22;7075;53.574;10.054;2023-06-24T10:21:16;20.90;99.90
14000;DHT22;7075;53.574;10.054;2023-06-24T10:26:29;21.00;99.90
14000;DHT22;7075;53.574;10.054;2023-06-24T10:29:08;21.10;99.90
14000;DHT22;7075;53.574;10.054;2023-06-24T10:34:32;21.10;99.90
14000;DHT22;7075;53.574;10.054;2023-06-24T10:39:36;21.30;99.90
14000;DHT22;7075;53.574;10.054;2023-06-24T10:47:33;21.30;99.90
14000;DHT22;7075;53.574;10.054;2023-06-24T10:50:03;21.30;99.90
14000;DHT22;7075;53.574;10.054;2023-06-24T10:52:29;21.40;99.90
14000;DHT22;7075;53.574;10.054;2023-06-24T10:54:56;21.40;99.90
14000;DHT22;7075;53.574;10.054;2023-06-24T10:57:27;21.40;99.90
14000;DHT22;7075;53.574;10.054;2023-06-24T10:59:54;21.50;99.90
14000;DHT22;7075;53.574;10.054;2023-06-24T11:02:26;21.50;99.90
14000;DHT22;7075;53.574;10.054;2023-06-24T11:04:55;21.60;99.90
14000;DHT22;7075;53.574;10.054;2023-06-24T11:07:29;21.70;99.90
14000;DHT22;7075;53.574;10.054;2023-06-24T11:10:00;21.80;99.90
14000;DHT22;7075;53.574;10.054;2023-06-24T11:12:45;21.80;99.90
14000;DHT22;7075;53.574;10.054;2023-06-24T11:15:13;21.80;99.90
14000;DHT22;7075;53.574;10.054;2023-06-24T11:17:41;21.90;99.90
14000;DHT22;7075;53.574;10.054;2023-06-24T11:20:13;21.90;99.90
14000;DHT22;7075;53.574;10.054;2023-06-24T11:22:43;21.90;99.90
14000;DHT22;7075;53.574;10.054;2023-06-24T11:25:17;21.90;99.90
14000;DHT22;7075;53.574;10.054;2023-06-24T11:27:43;21.90;99.90
14000;DHT22;7075;53.574;10.054;2023-06-24T11:30:09;21.90;99.90
14000;DHT22;7075;53.574;10.054;2023-06-24T11:32:52;22.00;99.90
14000;DHT22;7075;53.574;10.054;2023-06-24T11:35:19;22.00;99.90
14000;DHT22;7075;53.574;10.054;2023-06-24T11:37:48;22.10;99.90
14000;DHT22;7075;53.574;10.054;2023-06-24T11:40:17;22.20;99.90
14000;DHT22;7075;53.574;10.054;2023-06-24T11:42:45;22.20;99.90
14000;DHT22;7075;53.574;10.054;2023-06-24T11:45:12;22.40;99.90
14000;DHT22;7075;53.574;10.054;2023-06-24T11:47:42;22.40;99.90
14000;DHT22;7075;53.574;10.054;2023-06-24T11:50:08;22.50;99.90
14000;DHT22;7075;53.574;10.054;2023-06-24T11:52:46;22.60;99.90
14000;DHT22;7075;53.574;10.054;2023-06-24T11:55:17;22.70;99.90
14000;DHT22;7075;53.574;10.054;2023-06-24T11:57:50;22.70;99.90
14000;DHT22;7075;53.574;10.054;2023-06-24T12:00:23;22.80;99.90
14000;DHT22;7075;53.574;10.054;2023-06-24T12:02:54;22.90;99.90
14000;DHT22;7075;53.574;10.054;2023-06-24T12:05:27;23.00;99.90
14000;DHT22;7075;53.574;10.054;2023-06-24T12:08:10;23.10;99.90
14000;DHT22;7075;53.574;10.054;2023-06-24T12:10:38;23.30;99.90
14000;DHT22;7075;53.574;10.054;2023-06-24T12:13:05;23.30;99.90
14000;DHT22;7075;53.574;10.054;2023-06-24T12:15:32;23.40;99.90
14000;DHT22;7075;53.574;10.054;2023-06-24T12:17:58;23.40;99.90
14000;DHT22;7075;53.574;10.054;2023-06-24T12:20:25;23.50;99.90
14000;DHT22;7075;53.574;10.054;2023-06-24T12:22:51;23.50;99.90
14000;DHT22;7075;53.574;10.054;2023-06-24T12:25:17;23.60;99.90
14000;DHT22;7075;53.574;10.054;2023-06-24T12:27:44;23.60;99.90
14000;DHT22;7075;53.574;10.054;2023-06-24T12:30:10;23.70;99.90
14000;DHT22;7075;53.574;10.054;2023-06-24T12:32:37;23.70;99.90
14000;DHT22;7075;53.574;10.054;2023-06-24T12:35:03;23.70;99.90
14000;DHT22;7075;53.574;10.054;2023-06-24T12:37:33;23.70;99.90
14000;DHT22;7075;53.574;10.054;2023-06-24T12:39:59;23.60;99.90
14000;DHT22;7075;53.574;10.054;2023-06-24T12:42:26;23.70;99.90
14000;DHT22;7075;53.574;10.054;2023-06-24T12:44:52;23.70;99.90
14000;DHT22;7075;53.574;10.054;2023-06-24T12:47:19;23.80;99.90
14000;DHT22;7075;53.574;10.054;2023-06-24T12:49:45;23.90;99.90
14000;DHT22;7075;53.574;10.054;2023-06-24T12:52:13;23.90;99.90
14000;DHT22;7075;53.574;10.054;2023-06-24T12:54:40;23.90;99.90
14000;DHT22;7075;53.574;10.054;2023-06-24T12:57:06;23.80;99.90
14000;DHT22;7075;53.574;10.054;2023-06-24T12:59:31;23.80;99.90
14000;DHT22;7075;53.574;10.054;2023-06-24T13:01:57;23.90;99.90
14000;DHT22;7075;53.574;10.054;2023-06-24T13:04:23;24.00;99.90
14000;DHT22;7075;53.574;10.054;2023-06-24T13:06:50;24.20;99.90
14000;DHT22;7075;53.574;10.054;2023-06-24T13:09:16;24.20;99.90
14000;DHT22;7075;53.574;10.054;2023-06-24T13:11:42;24.20;99.90
14000;DHT22;7075;53.574;10.054;2023-06-24T13:14:09;24.20;99.90
14000;DHT22;7075;53.574;10.054;2023-06-24T13:16:39;24.20;99.90
14000;DHT22;7075;53.574;10.054;2023-06-24T13:19:06;24.20;99.90
14000;DHT22;7075;53.574;10.054;2023-06-24T13:21:35;24.20;99.90
14000;DHT22;7075;53.574;10.054;2023-06-24T13:24:00;24.20;99.90
14000;DHT22;7075;53.574;10.054;2023-06-24T13:26:26;24.20;99.90
14000;DHT22;7075;53.574;10.054;2023-06-24T13:28:52;24.30;99.90
14000;DHT22;7075;53.574;10.054;2023-06-24T13:31:19;24.50;99.90
14000;DHT22;7075;53.574;10.054;2023-06-24T13:33:45;24.60;99.90
14000;DHT22;7075;53.574;10.054;2023-06-24T13:36:28;24.80;99.90
14000;DHT22;7075;53.574;10.054;2023-06-24T13:38:54;25.00;99.90
14000;DHT22;7075;53.574;10.054;2023-06-24T13:41:22;25.00;99.90
14000;DHT22;7075;53.574;10.054;2023-06-24T13:43:47;25.10;99.90
14000;DHT22;7075;53.574;10.054;2023-06-24T13:46:17;25.10;99.90
14000;DHT22;7075;53.574;10.054;2023-06-24T13:48:42;25.30;99.90
14000;DHT22;7075;53.574;10.054;2023-06-24T13:51:08;25.30;99.90
14000;DHT22;7075;53.574;10.054;2023-06-24T13:53:34;25.40;99.90
14000;DHT22;7075;53.574;10.054;2023-06-24T13:56:00;25.40;99.90
14000;DHT22;7075;53.574;10.054;2023-06-24T13:58:27;25.40;99.90
14000;DHT22;7075;53.574;10.054;2023-06-24T14:00:53;25.40;99.90
14000;DHT22;7075;53.574;10.054;2023-06-24T14:03:18;25.60;99.90
14000;DHT22;7075;53.574;10.054;2023-06-24T14:05:44;25.70;99.90
14000;DHT22;7075;53.574;10.054;2023-06-24T14:08:09;25.80;99.90
14000;DHT22;7075;53.574;10.054;2023-06-24T14:10:35;25.90;99.90
14000;DHT22;7075;53.574;10.054;2023-06-24T14:13:00;26.00;99.90
14000;DHT22;7075;53.574;10.054;2023-06-24T14:15:26;26.10;99.90
14000;DHT22;7075;53.574;10.054;2023-06-24T14:17:52;26.00;99.90
14000;DHT22;7075;53.574;10.054;2023-06-24T14:20:17;25.90;99.90
14000;DHT22;7075;53.574;10.054;2023-06-24T14:22:43;25.70;99.90
14000;DHT22;7075;53.574;10.054;2023-06-24T14:25:09;25.70;99.90
14000;DHT22;7075;53.574;10.054;2023-06-24T14:27:35;25.70;99.90
14000;DHT22;7075;53.574;10.054;2023-06-24T14:30:01;25.90;99.90
14000;DHT22;7075;53.574;10.054;2023-06-24T14:32:26;26.10;99.90
14000;DHT22;7075;53.574;10.054;2023-06-24T14:34:52;26.20;99.90
14000;DHT22;7075;53.574;10.054;2023-06-24T14:37:17;26.40;99.90
14000;DHT22;7075;53.574;10.054;2023-06-24T14:39:44;26.60;99.90
14000;DHT22;7075;53.574;10.054;2023-06-24T14:42:10;26.80;99.90
14000;DHT22;7075;53.574;10.054;2023-06-24T14:44:35;26.80;99.90
14000;DHT22;7075;53.574;10.054;2023-06-24T14:47:01;26.50;99.90
14000;DHT22;7075;53.574;10.054;2023-06-24T14:49:27;26.20;99.90
14000;DHT22;7075;53.574;10.054;2023-06-24T14:51:52;26.30;99.90
14000;DHT22;7075;53.574;10.054;2023-06-24T14:54:18;26.40;99.90
14000;DHT22;7075;53.574;10.054;2023-06-24T14:56:44;26.70;99.90
14000;DHT22;7075;53.574;10.054;2023-06-24T14:59:11;26.70;99.90
14000;DHT22;7075;53.574;10.054;2023-06-24T15:01:36;26.60;99.90
14000;DHT22;7075;53.574;10.054;2023-06-24T15:04:03;26.70;99.90
14000;DHT22;7075;53.574;10.054;2023-06-24T15:06:29;26.60;99.90
14000;DHT22;7075;53.574;10.054;2023-06-24T15:08:55;26.70;99.90
14000;DHT22;7075;53.574;10.054;2023-06-24T15:11:20;26.90;99.90
14000;DHT22;7075;53.574;10.054;2023-06-24T15:13:47;27.20;99.90
14000;DHT22;7075;53.574;10.054;2023-06-24T15:16:13;27.40;99.90
14000;DHT22;7075;53.574;10.054;2023-06-24T15:18:47;27.60;99.90
14000;DHT22;7075;53.574;10.054;2023-06-24T15:21:14;27.40;99.90
14000;DHT22;7075;53.574;10.054;2023-06-24T15:23:41;27.60;99.90
14000;DHT22;7075;53.574;10.054;2023-06-24T15:26:07;27.90;99.90
14000;DHT22;7075;53.574;10.054;2023-06-24T15:28:32;27.90;99.90
14000;DHT22;7075;53.574;10.054;2023-06-24T15:31:00;27.90;99.90
14000;DHT22;7075;53.574;10.054;2023-06-24T15:33:26;27.80;99.90
14000;DHT22;7075;53.574;10.054;2023-06-24T15:35:52;27.50;99.90
14000;DHT22;7075;53.574;10.054;2023-06-24T15:38:18;27.30;99.90
14000;DHT22;7075;53.574;10.054;2023-06-24T15:40:44;27.00;99.90
14000;DHT22;7075;53.574;10.054;2023-06-24T15:43:10;26.80;99.90
14000;DHT22;7075;53.574;10.054;2023-06-24T15:45:36;26.70;99.90
14000;DHT22;7075;53.574;10.054;2023-06-24T15:48:05;26.60;99.90
14000;DHT22;7075;53.574;10.054;2023-06-24T15:50:31;26.60;99.90